createdAt,value
2019-03-03T00:07:18.987Z,8.64
2019-03-03T00:12:24.333Z,8.56
2019-03-03T00:17:29.619Z,8.50
2019-03-03T00:22:46.391Z,8.46
2019-03-03T00:27:51.692Z,8.38
2019-03-03T00:38:52.666Z,8.35
2019-03-03T00:44:16.876Z,8.34
2019-03-03T00:49:41.013Z,8.33
2019-03-03T00:55:16.572Z,8.41
2019-03-03T01:01:02.193Z,8.37
2019-03-03T01:12:44.518Z,8.44
2019-03-03T01:18:08.642Z,8.54
2019-03-03T01:23:32.789Z,8.63
2019-03-03T01:28:38.023Z,8.60
2019-03-03T01:33:43.610Z,8.62
2019-03-03T01:38:48.853Z,8.58
2019-03-03T01:44:05.350Z,8.64
2019-03-03T01:49:10.835Z,8.63
2019-03-03T01:54:16.826Z,8.67
2019-03-03T01:59:22.065Z,8.66
2019-03-03T02:10:03.550Z,8.63
2019-03-03T02:15:48.513Z,8.71
2019-03-03T02:21:12.897Z,8.71
2019-03-03T02:31:54.545Z,8.71
2019-03-03T02:36:59.905Z,8.73
2019-03-03T02:42:05.683Z,8.70
2019-03-03T02:52:46.978Z,8.71
2019-03-03T03:03:28.547Z,8.75
2019-03-03T03:08:45.445Z,8.76
2019-03-03T03:19:34.404Z,8.75
2019-03-03T03:24:58.504Z,8.78
2019-03-03T03:30:42.616Z,8.76
2019-03-03T03:41:31.829Z,8.78
2019-03-03T03:46:48.286Z,8.80
2019-03-03T03:52:32.174Z,8.79
2019-03-03T03:58:15.699Z,8.83
2019-03-03T04:03:40.186Z,8.87
2019-03-03T04:09:04.636Z,8.88
2019-03-03T04:20:07.291Z,8.92
2019-03-03T04:25:31.962Z,8.96
2019-03-03T04:31:07.990Z,8.89
2019-03-03T04:42:42.050Z,8.97
2019-03-03T04:48:06.531Z,8.95
2019-03-03T04:53:36.295Z,8.95
2019-03-03T04:59:00.564Z,8.88
2019-03-03T05:09:52.952Z,8.93
2019-03-03T05:20:45.421Z,8.91
2019-03-03T05:26:02.780Z,8.88
2019-03-03T05:31:03.278Z,8.91
2019-03-03T05:36:20.229Z,8.88
2019-03-03T05:41:44.491Z,8.87
2019-03-03T05:46:49.858Z,8.83
2019-03-03T05:51:55.125Z,8.86
2019-03-03T06:07:47.253Z,8.81
2019-03-03T06:18:09.149Z,8.82
2019-03-03T06:23:14.393Z,8.86
2019-03-03T06:28:19.585Z,8.84
2019-03-03T06:33:24.901Z,8.88
2019-03-03T06:38:30.107Z,8.84
2019-03-03T06:48:52.369Z,8.85
2019-03-03T06:53:57.569Z,8.89
2019-03-03T06:59:02.773Z,8.93
2019-03-03T07:04:08.010Z,8.94
2019-03-03T07:09:13.443Z,9.02
2019-03-03T07:14:18.648Z,9.01
2019-03-03T07:25:00.284Z,9.07
2019-03-03T07:41:30.370Z,9.17
2019-03-03T07:46:35.565Z,9.19
2019-03-03T07:51:40.801Z,9.20
2019-03-03T08:02:22.272Z,9.25
2019-03-03T08:07:27.484Z,9.37
2019-03-03T08:18:04.521Z,9.71
2019-03-03T08:28:26.801Z,9.97
2019-03-03T08:33:31.993Z,10.25
2019-03-03T08:38:49.570Z,10.33
2019-03-03T08:44:14.504Z,10.37
2019-03-03T08:49:38.941Z,10.30
2019-03-03T08:55:03.149Z,10.15
2019-03-03T09:00:31.619Z,10.26
2019-03-03T09:05:55.860Z,10.25
2019-03-03T09:11:20.029Z,10.15
2019-03-03T09:16:44.250Z,10.03
2019-03-03T09:22:08.831Z,10.02
2019-03-03T09:27:32.970Z,9.96
2019-03-03T09:32:57.178Z,10.04
2019-03-03T09:38:20.102Z,10.10
2019-03-03T09:43:56.437Z,10.22
2019-03-03T09:49:20.557Z,10.48
2019-03-03T09:54:36.571Z,10.64
2019-03-03T10:00:00.779Z,10.77
2019-03-03T10:05:47.163Z,10.76
2019-03-03T10:11:11.580Z,10.70
2019-03-03T10:16:52.922Z,10.73
2019-03-03T10:22:28.269Z,10.65
2019-03-03T10:27:52.531Z,10.72
2019-03-03T10:33:16.731Z,10.78
2019-03-03T10:38:40.839Z,10.73
2019-03-03T10:44:11.844Z,10.62
2019-03-03T10:49:23.903Z,10.54
2019-03-03T10:54:46.184Z,10.48
2019-03-03T11:00:21.478Z,10.52
2019-03-03T11:05:45.713Z,10.52
2019-03-03T11:11:09.952Z,10.27
2019-03-03T11:16:34.216Z,10.13
2019-03-03T11:22:23.563Z,9.95
2019-03-03T11:28:05.215Z,9.89
2019-03-03T11:33:29.436Z,9.81
2019-03-03T11:39:13.538Z,9.78
2019-03-03T11:44:46.563Z,9.69
2019-03-03T11:55:33.833Z,9.59
2019-03-03T12:00:58.002Z,9.53
2019-03-03T12:06:24.257Z,9.59
2019-03-03T12:12:00.174Z,9.52
2019-03-03T12:17:24.451Z,9.54
2019-03-03T12:22:48.956Z,9.59
2019-03-03T12:28:02.393Z,9.63
2019-03-03T12:33:26.150Z,9.76
2019-03-03T12:39:09.320Z,9.76
2019-03-03T12:50:53.604Z,9.90
2019-03-03T12:56:14.245Z,9.94
2019-03-03T13:07:35.726Z,10.11
2019-03-03T13:13:11.376Z,10.26
2019-03-03T13:18:22.471Z,10.29
2019-03-03T13:23:38.561Z,10.26
2019-03-03T13:29:22.233Z,10.18
2019-03-03T13:34:46.609Z,10.15
2019-03-03T13:46:23.362Z,10.12
2019-03-03T13:51:28.693Z,10.15
2019-03-03T13:56:34.370Z,10.18
2019-03-03T14:01:58.644Z,10.16
2019-03-03T14:12:20.955Z,10.15
2019-03-03T14:17:45.572Z,10.17
2019-03-03T14:34:23.673Z,10.16
2019-03-03T14:39:30.558Z,10.22
2019-03-03T14:44:47.072Z,10.32
2019-03-03T14:49:52.548Z,10.30
2019-03-03T14:55:17.447Z,10.32
2019-03-03T15:00:42.039Z,10.27
2019-03-03T15:05:47.732Z,10.26
2019-03-03T15:11:11.899Z,10.25
2019-03-03T15:27:04.280Z,10.29
2019-03-03T15:32:28.557Z,10.31
2019-03-03T15:37:33.786Z,10.28
2019-03-03T15:48:29.649Z,10.27
2019-03-03T15:53:34.924Z,10.30
2019-03-03T15:58:59.191Z,10.23
2019-03-03T16:10:20.362Z,10.33
2019-03-03T16:15:26.012Z,10.43
2019-03-03T16:25:47.929Z,10.48
2019-03-03T16:30:53.198Z,10.47
2019-03-03T16:36:17.474Z,10.50
2019-03-03T16:41:22.732Z,10.53
2019-03-03T16:46:27.969Z,10.50
2019-03-03T16:51:44.685Z,10.56
2019-03-03T16:57:01.509Z,10.58
2019-03-03T17:02:07.246Z,10.54
2019-03-03T17:07:31.525Z,10.59
2019-03-03T17:12:36.761Z,10.59
2019-03-03T17:17:42.005Z,10.59
2019-03-03T17:23:45.680Z,10.62
2019-03-03T17:34:40.385Z,10.63
2019-03-03T17:39:45.889Z,10.69
2019-03-03T17:44:51.492Z,10.63
2019-03-03T17:50:08.518Z,10.59
2019-03-03T17:55:25.109Z,10.61
2019-03-03T18:00:43.161Z,10.59
2019-03-03T18:05:59.842Z,10.63
2019-03-03T18:11:16.454Z,10.70
2019-03-03T18:21:39.303Z,10.68
2019-03-03T18:26:44.832Z,10.67
2019-03-03T18:31:50.038Z,10.63
2019-03-03T18:37:14.293Z,10.63
2019-03-03T18:42:19.868Z,10.61
2019-03-03T18:47:25.527Z,10.64
2019-03-03T18:57:49.449Z,10.70
2019-03-03T19:02:58.179Z,10.82
2019-03-03T19:08:24.607Z,10.74
2019-03-03T19:14:00.271Z,10.67
2019-03-03T19:19:05.485Z,10.67
2019-03-03T19:24:10.713Z,10.71
2019-03-03T19:29:16.146Z,10.70
2019-03-03T19:34:33.216Z,10.68
2019-03-03T19:39:38.441Z,10.79
2019-03-03T19:44:43.717Z,10.90
2019-03-03T19:49:50.459Z,10.90
2019-03-03T19:55:01.624Z,10.83
2019-03-03T20:06:04.524Z,10.89
2019-03-03T20:11:09.747Z,10.90
2019-03-03T20:16:15.028Z,10.90
2019-03-03T20:21:20.522Z,10.90
2019-03-03T20:26:26.069Z,10.88
2019-03-03T20:31:42.805Z,10.93
2019-03-03T20:36:48.055Z,10.91
2019-03-03T20:41:53.338Z,10.96
2019-03-03T20:46:58.629Z,10.95
2019-03-03T20:52:16.128Z,10.96
2019-03-03T20:57:33.251Z,10.97
2019-03-03T21:02:57.400Z,10.89
2019-03-03T21:08:02.780Z,11.01
2019-03-03T21:13:10.000Z,11.01
2019-03-03T21:23:34.383Z,10.95
2019-03-03T21:29:00.264Z,10.91
2019-03-03T21:34:05.857Z,10.94
2019-03-03T21:39:30.353Z,11.00
2019-03-03T21:50:11.931Z,11.00
2019-03-03T21:55:17.240Z,10.93
2019-03-03T22:00:41.537Z,10.93
2019-03-03T22:06:06.047Z,10.87
2019-03-03T22:11:11.307Z,10.94
2019-03-03T22:16:28.408Z,10.90
2019-03-03T22:21:33.703Z,10.87
2019-03-03T22:27:03.454Z,10.81
2019-03-03T22:37:49.968Z,10.95
2019-03-03T22:43:14.901Z,11.14
2019-03-03T22:48:31.379Z,11.06
2019-03-03T22:58:53.697Z,11.12
2019-03-03T23:04:36.935Z,11.12
2019-03-03T23:10:20.516Z,11.00
2019-03-03T23:16:03.853Z,10.88
2019-03-03T23:21:48.816Z,10.86
2019-03-03T23:26:54.358Z,10.84
2019-03-03T23:31:59.649Z,10.78
2019-03-03T23:37:23.901Z,10.71
2019-03-03T23:42:41.001Z,10.65
2019-03-03T23:47:46.258Z,10.65
2019-03-03T23:52:52.100Z,10.68
